sensor_id;sensor_type;location;lat;lon;timestamp;pressure;altitude;pressure_sealevel;temperature;humidity
55757;BME280;41676;44.610;44.078;2023-03-14T00:03:28;101232.78;;;4.77;94.69
55757;BME280;41676;44.610;44.078;2023-03-14T00:08:29;101224.16;;;4.75;95.27
55757;BME280;41676;44.610;44.078;2023-03-14T00:13:50;101232.69;;;4.79;94.56
55757;BME280;41676;44.610;44.078;2023-03-14T00:19:09;101161.31;;;4.34;94.49
55757;BME280;41676;44.610;44.078;2023-03-14T00:24:29;101219.44;;;4.68;94.70
55757;BME280;41676;44.610;44.078;2023-03-14T00:29:48;101230.38;;;4.74;93.99
55757;BME280;41676;44.610;44.078;2023-03-14T00:35:08;101250.63;;;4.61;94.35
55757;BME280;41676;44.610;44.078;2023-03-14T00:40:27;101263.34;;;4.67;94.45
55757;BME280;41676;44.610;44.078;2023-03-14T00:45:48;101257.75;;;4.72;94.90
55757;BME280;41676;44.610;44.078;2023-03-14T00:51:08;101263.63;;;4.75;94.67
55757;BME280;41676;44.610;44.078;2023-03-14T00:56:21;101153.56;;;4.07;94.69
55757;BME280;41676;44.610;44.078;2023-03-14T01:01:22;101280.91;;;4.79;94.95
55757;BME280;41676;44.610;44.078;2023-03-14T01:06:25;101293.25;;;4.79;94.63
55757;BME280;41676;44.610;44.078;2023-03-14T01:11:30;101297.53;;;4.80;94.03
55757;BME280;41676;44.610;44.078;2023-03-14T01:16:32;101291.09;;;4.97;94.34
55757;BME280;41676;44.610;44.078;2023-03-14T01:21:34;101238.84;;;4.41;94.17
55757;BME280;41676;44.610;44.078;2023-03-14T01:26:35;101290.81;;;4.76;94.25
55757;BME280;41676;44.610;44.078;2023-03-14T01:31:36;101247.56;;;4.42;94.08
55757;BME280;41676;44.610;44.078;2023-03-14T01:36:37;101335.97;;;4.83;94.36
55757;BME280;41676;44.610;44.078;2023-03-14T01:41:56;101304.19;;;4.60;94.60
55757;BME280;41676;44.610;44.078;2023-03-14T01:46:57;101325.25;;;4.73;94.92
55757;BME280;41676;44.610;44.078;2023-03-14T01:52:09;101257.25;;;4.41;94.71
55757;BME280;41676;44.610;44.078;2023-03-14T01:57:28;101332.78;;;4.90;94.52
55757;BME280;41676;44.610;44.078;2023-03-14T02:02:30;101337.84;;;4.93;93.75
55757;BME280;41676;44.610;44.078;2023-03-14T02:07:45;101166.69;;;3.94;93.22
55757;BME280;41676;44.610;44.078;2023-03-14T02:12:49;101338.28;;;4.87;93.17
55757;BME280;41676;44.610;44.078;2023-03-14T02:17:51;101296.59;;;4.68;92.91
55757;BME280;41676;44.610;44.078;2023-03-14T02:22:52;101322.41;;;4.76;92.92
55757;BME280;41676;44.610;44.078;2023-03-14T02:27:54;101315.88;;;4.69;92.90
55757;BME280;41676;44.610;44.078;2023-03-14T02:33:08;101349.88;;;4.85;92.82
55757;BME280;41676;44.610;44.078;2023-03-14T02:43:37;101346.94;;;4.64;91.57
55757;BME280;41676;44.610;44.078;2023-03-14T02:48:46;101308.00;;;4.43;90.98
55757;BME280;41676;44.610;44.078;2023-03-14T02:53:49;101348.00;;;4.61;90.59
55757;BME280;41676;44.610;44.078;2023-03-14T02:58:50;101331.13;;;4.38;90.57
55757;BME280;41676;44.610;44.078;2023-03-14T03:03:51;101320.59;;;4.25;90.56
55757;BME280;41676;44.610;44.078;2023-03-14T03:08:51;101358.47;;;4.48;90.71
55757;BME280;41676;44.610;44.078;2023-03-14T03:13:52;101345.53;;;4.45;90.64
55757;BME280;41676;44.610;44.078;2023-03-14T03:18:53;101355.75;;;4.50;90.64
55757;BME280;41676;44.610;44.078;2023-03-14T03:23:54;101354.31;;;4.46;90.21
55757;BME280;41676;44.610;44.078;2023-03-14T03:28:55;101398.84;;;4.62;89.95
55757;BME280;41676;44.610;44.078;2023-03-14T03:33:56;101351.84;;;4.30;90.25
55757;BME280;41676;44.610;44.078;2023-03-14T03:38:57;101390.59;;;4.66;89.76
55757;BME280;41676;44.610;44.078;2023-03-14T03:43:58;101392.41;;;4.53;89.47
55757;BME280;41676;44.610;44.078;2023-03-14T03:49:00;101420.44;;;4.67;89.99
55757;BME280;41676;44.610;44.078;2023-03-14T03:54:00;101390.06;;;4.48;88.62
55757;BME280;41676;44.610;44.078;2023-03-14T03:59:01;101404.22;;;4.73;88.92
55757;BME280;41676;44.610;44.078;2023-03-14T04:04:02;101392.00;;;4.85;88.33
55757;BME280;41676;44.610;44.078;2023-03-14T04:09:03;101398.00;;;4.87;88.98
55757;BME280;41676;44.610;44.078;2023-03-14T04:14:05;101394.31;;;4.89;88.00
55757;BME280;41676;44.610;44.078;2023-03-14T04:19:05;101377.34;;;4.68;88.33
55757;BME280;41676;44.610;44.078;2023-03-14T04:24:06;101322.91;;;4.30;88.23
55757;BME280;41676;44.610;44.078;2023-03-14T04:29:07;101408.53;;;4.87;88.18
55757;BME280;41676;44.610;44.078;2023-03-14T04:34:08;101341.94;;;4.33;87.61
55757;BME280;41676;44.610;44.078;2023-03-14T04:39:08;101322.06;;;4.17;88.14
55757;BME280;41676;44.610;44.078;2023-03-14T04:44:09;101427.03;;;4.72;87.45
55757;BME280;41676;44.610;44.078;2023-03-14T04:49:10;101330.88;;;4.16;88.01
55757;BME280;41676;44.610;44.078;2023-03-14T04:54:11;101407.22;;;4.54;87.34
55757;BME280;41676;44.610;44.078;2023-03-14T04:59:12;101410.28;;;4.61;87.29
55757;BME280;41676;44.610;44.078;2023-03-14T05:04:13;101449.47;;;4.78;86.63
55757;BME280;41676;44.610;44.078;2023-03-14T05:09:13;101442.13;;;4.83;86.61
55757;BME280;41676;44.610;44.078;2023-03-14T05:14:15;101363.25;;;4.43;85.71
55757;BME280;41676;44.610;44.078;2023-03-14T05:19:16;101369.75;;;4.50;85.66
55757;BME280;41676;44.610;44.078;2023-03-14T05:24:16;101406.44;;;4.79;85.34
55757;BME280;41676;44.610;44.078;2023-03-14T05:29:17;101426.03;;;5.00;84.83
55757;BME280;41676;44.610;44.078;2023-03-14T05:34:18;101370.72;;;4.62;84.23
55757;BME280;41676;44.610;44.078;2023-03-14T05:39:19;101436.34;;;5.16;82.85
55757;BME280;41676;44.610;44.078;2023-03-14T05:44:19;101359.13;;;4.77;81.39
55757;BME280;41676;44.610;44.078;2023-03-14T05:49:20;101442.00;;;5.23;80.87
55757;BME280;41676;44.610;44.078;2023-03-14T05:54:21;101441.91;;;5.24;79.94
55757;BME280;41676;44.610;44.078;2023-03-14T05:59:22;101452.78;;;5.33;80.20
55757;BME280;41676;44.610;44.078;2023-03-14T06:04:23;101333.34;;;4.70;80.11
55757;BME280;41676;44.610;44.078;2023-03-14T06:09:24;101376.91;;;4.99;80.12
55757;BME280;41676;44.610;44.078;2023-03-14T06:14:25;101430.72;;;5.46;80.00
55757;BME280;41676;44.610;44.078;2023-03-14T06:19:26;101396.38;;;5.22;78.23
55757;BME280;41676;44.610;44.078;2023-03-14T06:24:27;101450.50;;;5.65;78.24
55757;BME280;41676;44.610;44.078;2023-03-14T06:29:27;101451.22;;;5.67;77.60
55757;BME280;41676;44.610;44.078;2023-03-14T06:34:28;101309.19;;;5.01;77.57
55757;BME280;41676;44.610;44.078;2023-03-14T06:39:29;101402.38;;;5.74;76.87
55757;BME280;41676;44.610;44.078;2023-03-14T06:44:30;101400.50;;;6.00;76.73
55757;BME280;41676;44.610;44.078;2023-03-14T06:49:31;101420.25;;;6.18;74.78
55757;BME280;41676;44.610;44.078;2023-03-14T06:54:31;101410.78;;;6.16;73.84
55757;BME280;41676;44.610;44.078;2023-03-14T06:59:32;101302.69;;;5.79;72.93
55757;BME280;41676;44.610;44.078;2023-03-14T07:04:33;101426.25;;;6.45;72.49
55757;BME280;41676;44.610;44.078;2023-03-14T07:09:34;101395.16;;;6.37;72.35
55757;BME280;41676;44.610;44.078;2023-03-14T07:14:34;101400.28;;;6.62;71.65
55757;BME280;41676;44.610;44.078;2023-03-14T07:19:35;101407.63;;;6.70;69.92
55757;BME280;41676;44.610;44.078;2023-03-14T07:24:36;101419.13;;;6.69;69.83
55757;BME280;41676;44.610;44.078;2023-03-14T07:29:37;101316.28;;;6.21;68.81
55757;BME280;41676;44.610;44.078;2023-03-14T07:34:37;101375.06;;;6.70;68.33
55757;BME280;41676;44.610;44.078;2023-03-14T07:39:38;101417.63;;;7.23;67.43
55757;BME280;41676;44.610;44.078;2023-03-14T07:44:39;101406.81;;;7.37;67.16
55757;BME280;41676;44.610;44.078;2023-03-14T07:49:40;101374.03;;;7.28;65.92
55757;BME280;41676;44.610;44.078;2023-03-14T07:54:41;101401.38;;;7.50;64.21
55757;BME280;41676;44.610;44.078;2023-03-14T07:59:41;101395.50;;;7.69;63.71
55757;BME280;41676;44.610;44.078;2023-03-14T08:04:42;101313.72;;;7.11;61.39
55757;BME280;41676;44.610;44.078;2023-03-14T08:09:43;101357.66;;;7.46;61.63
55757;BME280;41676;44.610;44.078;2023-03-14T08:14:44;101400.03;;;8.10;61.52
55757;BME280;41676;44.610;44.078;2023-03-14T08:19:45;101329.19;;;7.82;60.95
55757;BME280;41676;44.610;44.078;2023-03-14T08:24:45;101333.34;;;7.95;59.28
55757;BME280;41676;44.610;44.078;2023-03-14T08:29:46;101386.25;;;8.39;58.93
55757;BME280;41676;44.610;44.078;2023-03-14T08:34:47;101331.22;;;8.42;58.54
55757;BME280;41676;44.610;44.078;2023-03-14T08:39:47;101284.78;;;8.17;56.95
55757;BME280;41676;44.610;44.078;2023-03-14T08:44:48;101367.50;;;8.73;56.84
55757;BME280;41676;44.610;44.078;2023-03-14T08:49:49;101366.28;;;8.77;55.67
55757;BME280;41676;44.610;44.078;2023-03-14T08:54:50;101288.38;;;8.16;53.66
55757;BME280;41676;44.610;44.078;2023-03-14T08:59:50;101256.81;;;8.24;53.33
55757;BME280;41676;44.610;44.078;2023-03-14T09:04:52;101354.16;;;9.14;53.33
55757;BME280;41676;44.610;44.078;2023-03-14T09:09:53;101320.50;;;9.05;51.89
55757;BME280;41676;44.610;44.078;2023-03-14T09:14:53;101343.91;;;9.31;49.71
55757;BME280;41676;44.610;44.078;2023-03-14T09:19:54;101286.66;;;9.19;50.35
55757;BME280;41676;44.610;44.078;2023-03-14T09:24:55;101320.09;;;9.70;50.45
55757;BME280;41676;44.610;44.078;2023-03-14T09:29:56;101260.44;;;9.35;49.00
55757;BME280;41676;44.610;44.078;2023-03-14T09:34:57;101240.44;;;9.11;46.52
55757;BME280;41676;44.610;44.078;2023-03-14T09:39:58;101302.88;;;9.35;47.67
55757;BME280;41676;44.610;44.078;2023-03-14T09:45:05;101311.56;;;9.56;46.55
55757;BME280;41676;44.610;44.078;2023-03-14T09:50:14;101286.03;;;9.55;48.03
55757;BME280;41676;44.610;44.078;2023-03-14T09:55:18;101284.91;;;9.58;45.87
55757;BME280;41676;44.610;44.078;2023-03-14T10:00:24;101276.63;;;9.32;44.83
55757;BME280;41676;44.610;44.078;2023-03-14T10:05:26;101289.22;;;9.49;45.26
55757;BME280;41676;44.610;44.078;2023-03-14T10:10:30;101193.00;;;9.18;43.55
55757;BME280;41676;44.610;44.078;2023-03-14T10:15:34;101238.28;;;9.46;45.20
55757;BME280;41676;44.610;44.078;2023-03-14T10:20:40;101264.22;;;9.81;44.52
55757;BME280;41676;44.610;44.078;2023-03-14T10:25:59;101250.53;;;9.66;43.56
55757;BME280;41676;44.610;44.078;2023-03-14T10:31:01;101257.38;;;9.69;42.96
55757;BME280;41676;44.610;44.078;2023-03-14T10:36:21;101251.66;;;9.83;44.44
55757;BME280;41676;44.610;44.078;2023-03-14T10:41:25;101176.97;;;9.39;44.21
55757;BME280;41676;44.610;44.078;2023-03-14T10:46:30;101156.75;;;9.38;44.67
55757;BME280;41676;44.610;44.078;2023-03-14T10:51:31;101143.91;;;9.24;44.62
55757;BME280;41676;44.610;44.078;2023-03-14T10:56:36;101233.13;;;9.64;44.66
55757;BME280;41676;44.610;44.078;2023-03-14T11:07:20;101209.63;;;9.69;46.32
55757;BME280;41676;44.610;44.078;2023-03-14T11:28:49;101108.72;;;9.51;45.97
55757;BME280;41676;44.610;44.078;2023-03-14T11:34:01;101163.97;;;9.85;45.16
55757;BME280;41676;44.610;44.078;2023-03-14T11:39:16;101188.38;;;9.98;44.94
55757;BME280;41676;44.610;44.078;2023-03-14T11:44:20;101185.00;;;10.05;45.62
55757;BME280;41676;44.610;44.078;2023-03-14T11:49:48;101146.94;;;9.68;45.18
55757;BME280;41676;44.610;44.078;2023-03-14T12:00:19;101148.13;;;10.02;43.36
55757;BME280;41676;44.610;44.078;2023-03-14T12:10:46;101116.38;;;9.64;43.36
55757;BME280;41676;44.610;44.078;2023-03-14T12:15:54;101108.84;;;9.59;42.68
55757;BME280;41676;44.610;44.078;2023-03-14T12:21:04;101174.22;;;10.07;42.04
55757;BME280;41676;44.610;44.078;2023-03-14T12:37:09;101109.69;;;9.69;42.47
55757;BME280;41676;44.610;44.078;2023-03-14T12:58:35;101193.03;;;9.67;42.98
55757;BME280;41676;44.610;44.078;2023-03-14T13:03:43;101202.94;;;9.45;43.27
55757;BME280;41676;44.610;44.078;2023-03-14T13:08:45;101142.09;;;8.95;43.57
55757;BME280;41676;44.610;44.078;2023-03-14T13:13:56;101198.91;;;9.22;44.07
55757;BME280;41676;44.610;44.078;2023-03-14T13:19:03;101199.13;;;8.99;43.34
55757;BME280;41676;44.610;44.078;2023-03-14T13:24:07;101195.31;;;8.82;43.26
55757;BME280;41676;44.610;44.078;2023-03-14T13:34:20;101176.19;;;8.69;44.10
55757;BME280;41676;44.610;44.078;2023-03-14T13:39:23;101187.66;;;8.79;44.70
55757;BME280;41676;44.610;44.078;2023-03-14T13:44:39;101085.47;;;8.27;43.64
55757;BME280;41676;44.610;44.078;2023-03-14T13:49:40;101154.16;;;8.59;44.92
55757;BME280;41676;44.610;44.078;2023-03-14T13:54:41;101130.53;;;8.46;45.56
55757;BME280;41676;44.610;44.078;2023-03-14T13:59:42;101124.91;;;8.30;45.82
55757;BME280;41676;44.610;44.078;2023-03-14T14:04:43;101072.94;;;7.98;46.54
55757;BME280;41676;44.610;44.078;2023-03-14T14:09:54;101090.53;;;7.99;46.91
55757;BME280;41676;44.610;44.078;2023-03-14T14:14:59;101155.38;;;8.24;47.09
55757;BME280;41676;44.610;44.078;2023-03-14T14:20:04;101142.50;;;8.10;47.49
55757;BME280;41676;44.610;44.078;2023-03-14T14:25:06;101161.31;;;8.16;47.52
55757;BME280;41676;44.610;44.078;2023-03-14T14:35:32;101128.50;;;7.98;48.33
55757;BME280;41676;44.610;44.078;2023-03-14T14:40:33;101126.28;;;7.93;48.15
55757;BME280;41676;44.610;44.078;2023-03-14T14:45:34;101131.84;;;7.90;48.15
55757;BME280;41676;44.610;44.078;2023-03-14T14:50:48;101079.16;;;7.36;48.20
55757;BME280;41676;44.610;44.078;2023-03-14T14:55:51;101126.63;;;7.58;48.83
55757;BME280;41676;44.610;44.078;2023-03-14T15:00:59;101157.00;;;7.85;49.34
55757;BME280;41676;44.610;44.078;2023-03-14T15:06:01;101120.78;;;7.54;49.40
55757;BME280;41676;44.610;44.078;2023-03-14T15:11:02;101165.84;;;7.74;49.68
55757;BME280;41676;44.610;44.078;2023-03-14T15:16:04;101163.59;;;7.69;49.59
55757;BME280;41676;44.610;44.078;2023-03-14T15:21:10;101160.16;;;7.58;49.61
55757;BME280;41676;44.610;44.078;2023-03-14T15:26:13;101159.50;;;7.44;50.38
55757;BME280;41676;44.610;44.078;2023-03-14T15:31:15;101172.59;;;7.46;50.47
55757;BME280;41676;44.610;44.078;2023-03-14T15:36:23;101183.25;;;7.23;51.41
55757;BME280;41676;44.610;44.078;2023-03-14T15:41:26;101185.06;;;7.23;51.71
55757;BME280;41676;44.610;44.078;2023-03-14T15:46:27;101164.59;;;7.04;51.87
55757;BME280;41676;44.610;44.078;2023-03-14T15:51:27;101159.81;;;6.98;52.65
55757;BME280;41676;44.610;44.078;2023-03-14T15:56:28;101121.22;;;6.74;52.91
55757;BME280;41676;44.610;44.078;2023-03-14T16:01:31;101145.16;;;6.94;53.55
55757;BME280;41676;44.610;44.078;2023-03-14T16:06:32;101083.47;;;6.51;54.16
55757;BME280;41676;44.610;44.078;2023-03-14T16:11:32;101155.16;;;6.90;54.67
55757;BME280;41676;44.610;44.078;2023-03-14T16:16:33;101085.78;;;6.45;55.44
55757;BME280;41676;44.610;44.078;2023-03-14T16:21:34;101150.28;;;6.74;56.54
55757;BME280;41676;44.610;44.078;2023-03-14T16:26:35;101140.13;;;6.47;57.13
55757;BME280;41676;44.610;44.078;2023-03-14T16:31:36;101076.59;;;5.94;58.81
55757;BME280;41676;44.610;44.078;2023-03-14T16:36:42;101159.66;;;6.22;59.94
55757;BME280;41676;44.610;44.078;2023-03-14T16:41:43;101158.94;;;6.09;60.48
55757;BME280;41676;44.610;44.078;2023-03-14T16:46:44;101169.63;;;6.07;61.64
55757;BME280;41676;44.610;44.078;2023-03-14T16:51:45;101092.31;;;5.49;61.98
55757;BME280;41676;44.610;44.078;2023-03-14T16:56:46;101149.28;;;5.74;63.13
55757;BME280;41676;44.610;44.078;2023-03-14T17:01:48;101170.22;;;5.64;64.42
55757;BME280;41676;44.610;44.078;2023-03-14T17:06:49;101151.59;;;5.43;64.00
55757;BME280;41676;44.610;44.078;2023-03-14T17:11:51;101169.78;;;5.35;64.79
55757;BME280;41676;44.610;44.078;2023-03-14T17:16:51;101175.09;;;5.22;65.17
55757;BME280;41676;44.610;44.078;2023-03-14T17:21:53;100948.63;;;3.80;65.24
55757;BME280;41676;44.610;44.078;2023-03-14T17:26:54;101109.44;;;4.60;66.44
55757;BME280;41676;44.610;44.078;2023-03-14T17:31:55;101147.50;;;4.80;66.37
55757;BME280;41676;44.610;44.078;2023-03-14T17:36:55;101113.19;;;4.45;66.25
55757;BME280;41676;44.610;44.078;2023-03-14T17:41:56;101140.00;;;4.50;66.70
55757;BME280;41676;44.610;44.078;2023-03-14T17:46:58;101153.91;;;4.39;66.92
55757;BME280;41676;44.610;44.078;2023-03-14T17:51:59;101175.56;;;4.43;67.46
55757;BME280;41676;44.610;44.078;2023-03-14T17:56:59;101175.38;;;4.33;66.67
55757;BME280;41676;44.610;44.078;2023-03-14T18:02:01;101169.09;;;4.23;66.86
55757;BME280;41676;44.610;44.078;2023-03-14T18:07:02;101071.97;;;3.57;66.86
55757;BME280;41676;44.610;44.078;2023-03-14T18:12:04;101177.53;;;4.02;67.14
55757;BME280;41676;44.610;44.078;2023-03-14T18:17:05;101083.94;;;3.36;67.42
55757;BME280;41676;44.610;44.078;2023-03-14T18:22:06;101157.09;;;3.67;67.23
55757;BME280;41676;44.610;44.078;2023-03-14T18:27:07;101168.56;;;3.66;67.30
55757;BME280;41676;44.610;44.078;2023-03-14T18:32:08;101170.56;;;3.63;67.75
55757;BME280;41676;44.610;44.078;2023-03-14T18:37:09;101165.91;;;3.54;68.11
55757;BME280;41676;44.610;44.078;2023-03-14T18:42:10;101170.34;;;3.53;68.20
55757;BME280;41676;44.610;44.078;2023-03-14T18:47:11;101116.34;;;3.09;68.40
55757;BME280;41676;44.610;44.078;2023-03-14T18:52:12;101098.56;;;3.00;68.67
55757;BME280;41676;44.610;44.078;2023-03-14T18:57:13;101114.53;;;2.97;68.71
55757;BME280;41676;44.610;44.078;2023-03-14T19:02:13;101089.81;;;2.87;68.93
55757;BME280;41676;44.610;44.078;2023-03-14T19:07:14;101140.91;;;3.08;69.20
55757;BME280;41676;44.610;44.078;2023-03-14T19:12:15;101110.78;;;2.87;69.20
55757;BME280;41676;44.610;44.078;2023-03-14T19:17:17;101105.88;;;2.82;68.50
55757;BME280;41676;44.610;44.078;2023-03-14T19:22:17;101059.47;;;2.56;68.56
55757;BME280;41676;44.610;44.078;2023-03-14T19:27:18;101110.72;;;2.88;68.01
55757;BME280;41676;44.610;44.078;2023-03-14T19:32:20;101075.25;;;2.68;68.17
55757;BME280;41676;44.610;44.078;2023-03-14T19:37:21;101023.31;;;2.34;68.08
55757;BME280;41676;44.610;44.078;2023-03-14T19:42:22;101037.22;;;2.48;68.07
55757;BME280;41676;44.610;44.078;2023-03-14T19:47:23;100961.06;;;1.96;67.90
55757;BME280;41676;44.610;44.078;2023-03-14T19:52:24;100938.44;;;1.95;68.13
55757;BME280;41676;44.610;44.078;2023-03-14T19:57:24;101064.28;;;2.76;68.65
55757;BME280;41676;44.610;44.078;2023-03-14T20:02:25;101058.41;;;2.72;68.75
55757;BME280;41676;44.610;44.078;2023-03-14T20:07:26;100987.09;;;2.26;69.02
55757;BME280;41676;44.610;44.078;2023-03-14T20:12:29;101055.09;;;2.69;68.87
55757;BME280;41676;44.610;44.078;2023-03-14T20:17:31;101033.81;;;2.61;69.79
55757;BME280;41676;44.610;44.078;2023-03-14T20:22:33;101035.28;;;2.65;69.80
55757;BME280;41676;44.610;44.078;2023-03-14T20:27:38;100934.19;;;2.07;69.95
55757;BME280;41676;44.610;44.078;2023-03-14T20:32:40;100967.06;;;2.25;70.29
55757;BME280;41676;44.610;44.078;2023-03-14T20:37:41;100997.34;;;2.43;70.44
55757;BME280;41676;44.610;44.078;2023-03-14T20:42:42;100989.03;;;2.37;70.48
55757;BME280;41676;44.610;44.078;2023-03-14T20:47:42;101016.53;;;2.44;70.92
55757;BME280;41676;44.610;44.078;2023-03-14T20:52:43;100909.53;;;1.82;70.72
55757;BME280;41676;44.610;44.078;2023-03-14T20:57:44;100935.09;;;2.05;71.15
55757;BME280;41676;44.610;44.078;2023-03-14T21:02:45;100977.88;;;2.33;71.30
55757;BME280;41676;44.610;44.078;2023-03-14T21:07:46;100853.28;;;1.60;71.38
55757;BME280;41676;44.610;44.078;2023-03-14T21:12:47;100845.53;;;1.59;71.79
55757;BME280;41676;44.610;44.078;2023-03-14T21:17:48;100886.81;;;1.82;71.91
55757;BME280;41676;44.610;44.078;2023-03-14T21:22:48;100854.13;;;1.61;72.23
55757;BME280;41676;44.610;44.078;2023-03-14T21:27:49;100913.91;;;1.96;72.56
55757;BME280;41676;44.610;44.078;2023-03-14T21:32:51;100922.41;;;1.99;72.68
55757;BME280;41676;44.610;44.078;2023-03-14T21:37:51;100943.72;;;2.08;72.91
55757;BME280;41676;44.610;44.078;2023-03-14T21:42:52;100936.88;;;2.05;73.17
55757;BME280;41676;44.610;44.078;2023-03-14T21:47:55;100927.94;;;1.95;73.30
55757;BME280;41676;44.610;44.078;2023-03-14T21:52:55;100910.66;;;1.92;73.38
55757;BME280;41676;44.610;44.078;2023-03-14T21:57:59;100889.25;;;1.86;73.64
55757;BME280;41676;44.610;44.078;2023-03-14T22:03:02;100851.69;;;1.58;73.91
55757;BME280;41676;44.610;44.078;2023-03-14T22:08:02;100842.81;;;1.60;73.96
55757;BME280;41676;44.610;44.078;2023-03-14T22:13:03;100804.16;;;1.37;74.29
55757;BME280;41676;44.610;44.078;2023-03-14T22:18:04;100766.00;;;1.20;74.14
55757;BME280;41676;44.610;44.078;2023-03-14T22:23:05;100861.66;;;1.80;74.38
55757;BME280;41676;44.610;44.078;2023-03-14T22:28:06;100861.53;;;1.81;74.57
55757;BME280;41676;44.610;44.078;2023-03-14T22:33:06;100850.22;;;1.81;74.38
55757;BME280;41676;44.610;44.078;2023-03-14T22:38:07;100827.34;;;1.70;75.04
55757;BME280;41676;44.610;44.078;2023-03-14T22:43:08;100863.75;;;1.88;75.13
55757;BME280;41676;44.610;44.078;2023-03-14T22:48:09;100824.91;;;1.67;75.30
55757;BME280;41676;44.610;44.078;2023-03-14T22:53:10;100832.94;;;1.78;75.39
55757;BME280;41676;44.610;44.078;2023-03-14T22:58:10;100816.03;;;1.70;75.38
55757;BME280;41676;44.610;44.078;2023-03-14T23:03:11;100788.13;;;1.56;75.79
55757;BME280;41676;44.610;44.078;2023-03-14T23:08:14;100696.44;;;1.16;75.40
55757;BME280;41676;44.610;44.078;2023-03-14T23:13:15;100760.16;;;1.56;75.65
55757;BME280;41676;44.610;44.078;2023-03-14T23:18:15;100691.41;;;1.13;75.79
55757;BME280;41676;44.610;44.078;2023-03-14T23:23:16;100732.09;;;1.31;76.12
55757;BME280;41676;44.610;44.078;2023-03-14T23:28:17;100594.97;;;0.40;76.77
55757;BME280;41676;44.610;44.078;2023-03-14T23:33:18;100740.03;;;1.17;77.80
55757;BME280;41676;44.610;44.078;2023-03-14T23:38:23;100728.59;;;1.18;78.23
55757;BME280;41676;44.610;44.078;2023-03-14T23:43:25;100741.50;;;1.21;78.08
55757;BME280;41676;44.610;44.078;2023-03-14T23:48:28;100652.50;;;0.67;77.53
55757;BME280;41676;44.610;44.078;2023-03-14T23:53:30;100724.31;;;1.17;77.85
55757;BME280;41676;44.610;44.078;2023-03-14T23:58:31;100653.41;;;0.80;77.99
